createdAt,value
2023-04-11T00:00:57.936Z,10.30
2023-04-11T00:03:25.353Z,10.30
2023-04-11T00:05:52.501Z,10.30
2023-04-11T00:08:19.374Z,10.30
2023-04-11T00:10:46.312Z,10.30
2023-04-11T00:13:13.479Z,10.20
2023-04-11T00:15:40.519Z,10.20
2023-04-11T00:18:08.000Z,10.20
2023-04-11T00:20:35.029Z,10.10
2023-04-11T00:23:01.973Z,10.10
2023-04-11T00:25:30.300Z,10.10
2023-04-11T00:27:57.433Z,10.10
2023-04-11T00:30:24.634Z,10.10
2023-04-11T00:32:51.644Z,10.10
2023-04-11T00:35:19.077Z,10.10
2023-04-11T00:37:47.074Z,10.10
2023-04-11T00:40:17.652Z,10.10
2023-04-11T00:42:44.635Z,10.00
2023-04-11T00:45:12.163Z,10.00
2023-04-11T00:47:39.425Z,10.00
2023-04-11T00:50:07.596Z,10.00
2023-04-11T00:52:36.821Z,9.90
2023-04-11T00:55:04.218Z,10.00
2023-04-11T00:57:32.250Z,10.00
2023-04-11T01:00:01.876Z,10.00
2023-04-11T01:02:29.675Z,10.00
2023-04-11T01:04:57.141Z,10.00
2023-04-11T01:07:25.215Z,10.00
2023-04-11T01:09:53.404Z,10.00
2023-04-11T01:12:21.870Z,10.10
2023-04-11T01:14:49.577Z,10.10
2023-04-11T01:17:16.729Z,10.10
2023-04-11T01:19:43.916Z,10.10
2023-04-11T01:22:13.710Z,10.00
2023-04-11T01:24:41.124Z,10.00
2023-04-11T01:27:08.105Z,10.00
2023-04-11T01:29:35.146Z,9.90
2023-04-11T01:32:02.358Z,9.90
2023-04-11T01:34:32.066Z,10.00
2023-04-11T01:36:59.250Z,9.90
2023-04-11T01:39:26.109Z,9.90
2023-04-11T01:41:56.797Z,9.90
2023-04-11T01:44:26.418Z,9.90
2023-04-11T01:46:53.438Z,9.90
2023-04-11T01:49:21.744Z,9.80
2023-04-11T01:51:48.621Z,9.80
2023-04-11T01:54:15.715Z,9.70
2023-04-11T01:56:42.814Z,9.70
2023-04-11T01:59:09.809Z,9.70
2023-04-11T02:01:36.827Z,9.70
2023-04-11T02:04:04.037Z,9.70
2023-04-11T02:06:32.133Z,9.60
2023-04-11T02:08:59.317Z,9.60
2023-04-11T02:11:26.214Z,9.60
2023-04-11T02:13:53.178Z,9.60
2023-04-11T02:16:20.837Z,9.60
2023-04-11T02:18:47.901Z,9.60
2023-04-11T02:21:14.844Z,9.70
2023-04-11T02:23:41.760Z,9.70
2023-04-11T02:26:08.909Z,9.70
2023-04-11T02:28:36.675Z,9.70
2023-04-11T02:31:04.118Z,9.70
2023-04-11T02:33:31.267Z,9.70
2023-04-11T02:35:58.456Z,9.70
2023-04-11T02:38:25.765Z,9.80
2023-04-11T02:40:52.719Z,9.70
2023-04-11T02:43:19.865Z,9.70
2023-04-11T02:45:47.009Z,9.70
2023-04-11T02:48:14.548Z,9.70
2023-04-11T02:50:44.854Z,9.70
2023-04-11T02:53:12.244Z,9.70
2023-04-11T02:55:46.641Z,9.60
2023-04-11T02:58:17.707Z,9.70
2023-04-11T03:00:45.902Z,9.70
2023-04-11T03:03:13.459Z,9.60
2023-04-11T03:05:45.289Z,9.60
2023-04-11T03:08:13.761Z,9.60
2023-04-11T03:10:47.966Z,9.60
2023-04-11T03:13:15.530Z,9.60
2023-04-11T03:15:42.847Z,9.60
2023-04-11T03:18:11.456Z,9.50
2023-04-11T03:20:42.039Z,9.50
2023-04-11T03:23:11.082Z,9.50
2023-04-11T03:25:39.023Z,9.50
2023-04-11T03:28:06.626Z,9.40
2023-04-11T03:30:33.739Z,9.40
2023-04-11T03:33:01.884Z,9.40
2023-04-11T03:35:30.638Z,9.30
2023-04-11T03:37:57.952Z,9.30
2023-04-11T03:40:26.067Z,9.30
2023-04-11T03:43:08.617Z,9.30
2023-04-11T03:45:36.866Z,9.30
2023-04-11T03:48:07.081Z,9.30
2023-04-11T03:50:47.021Z,9.30
2023-04-11T03:53:16.870Z,9.40
2023-04-11T03:55:45.779Z,9.30
2023-04-11T03:58:16.414Z,9.30
2023-04-11T04:00:43.911Z,9.30
2023-04-11T04:03:11.062Z,9.30
2023-04-11T04:05:43.347Z,9.30
2023-04-11T04:08:11.792Z,9.30
2023-04-11T04:10:49.464Z,9.30
2023-04-11T04:13:16.785Z,9.30
2023-04-11T04:15:52.925Z,9.30
2023-04-11T04:18:24.477Z,9.30
2023-04-11T04:20:51.596Z,9.30
2023-04-11T04:23:20.258Z,9.30
2023-04-11T04:26:13.190Z,9.30
2023-04-11T04:28:46.017Z,9.40
2023-04-11T04:31:15.687Z,9.30
2023-04-11T04:33:43.123Z,9.40
2023-04-11T04:36:19.888Z,9.40
2023-04-11T04:38:48.556Z,9.30
2023-04-11T04:41:22.058Z,9.40
2023-04-11T04:43:58.311Z,9.40
2023-04-11T04:46:40.526Z,9.40
2023-04-11T04:49:08.720Z,9.40
2023-04-11T04:51:37.357Z,9.40
2023-04-11T04:54:05.204Z,9.40
2023-04-11T04:56:32.357Z,9.40
2023-04-11T04:58:59.636Z,9.40
2023-04-11T05:01:28.655Z,9.40
2023-04-11T05:04:00.177Z,9.40
2023-04-11T05:06:45.240Z,9.40
2023-04-11T05:09:12.457Z,9.40
2023-04-11T05:11:39.704Z,9.30
2023-04-11T05:14:07.262Z,9.40
2023-04-11T05:16:34.926Z,9.30
2023-04-11T05:19:02.047Z,9.40
2023-04-11T05:21:31.636Z,9.40
2023-04-11T05:23:58.633Z,9.40
2023-04-11T05:26:26.316Z,9.50
2023-04-11T05:28:53.728Z,9.50
2023-04-11T05:31:25.643Z,9.50
2023-04-11T05:33:52.897Z,9.50
2023-04-11T05:36:20.034Z,9.60
2023-04-11T05:38:47.058Z,9.60
2023-04-11T05:41:14.353Z,9.60
2023-04-11T05:43:41.344Z,9.70
2023-04-11T05:46:09.558Z,9.80
2023-04-11T05:48:38.149Z,9.80
2023-04-11T05:51:06.054Z,9.90
2023-04-11T05:53:34.268Z,10.00
2023-04-11T05:56:01.393Z,10.10
2023-04-11T05:58:29.928Z,10.20
2023-04-11T06:00:59.468Z,10.20
2023-04-11T06:03:27.338Z,10.30
2023-04-11T06:05:54.752Z,10.40
2023-04-11T06:08:22.133Z,10.50
2023-04-11T06:10:49.015Z,10.60
2023-04-11T06:13:16.168Z,10.70
2023-04-11T06:15:43.182Z,10.80
2023-04-11T06:18:10.404Z,10.90
2023-04-11T06:20:37.305Z,10.90
2023-04-11T06:23:04.414Z,11.00
2023-04-11T06:25:31.386Z,11.10
2023-04-11T06:27:58.366Z,11.20
2023-04-11T06:30:25.552Z,11.30
2023-04-11T06:32:52.674Z,11.40
2023-04-11T06:35:20.663Z,11.50
2023-04-11T06:37:47.649Z,11.60
2023-04-11T06:40:14.617Z,11.70
2023-04-11T06:42:42.443Z,11.80
2023-04-11T06:45:10.612Z,12.00
2023-04-11T06:47:37.694Z,12.10
2023-04-11T06:50:05.482Z,12.30
2023-04-11T06:52:32.517Z,12.30
2023-04-11T06:54:59.352Z,12.50
2023-04-11T06:57:26.371Z,12.60
2023-04-11T06:59:53.310Z,12.80
2023-04-11T07:02:20.481Z,12.90
2023-04-11T07:04:47.537Z,13.10
2023-04-11T07:07:14.550Z,13.20
2023-04-11T07:09:41.433Z,13.40
2023-04-11T07:12:08.436Z,13.50
2023-04-11T07:14:35.560Z,13.80
2023-04-11T07:17:02.498Z,14.00
2023-04-11T07:19:29.421Z,14.30
2023-04-11T07:21:56.804Z,14.50
2023-04-11T07:24:23.803Z,14.70
2023-04-11T07:26:52.004Z,14.80
2023-04-11T07:29:19.291Z,14.90
2023-04-11T07:31:46.246Z,15.00
2023-04-11T07:34:13.174Z,15.20
2023-04-11T07:36:42.044Z,15.30
2023-04-11T07:39:12.309Z,15.60
2023-04-11T07:41:39.497Z,15.80
2023-04-11T07:44:07.613Z,16.00
2023-04-11T07:46:36.097Z,16.20
2023-04-11T07:49:03.107Z,16.30
2023-04-11T07:51:30.129Z,16.40
2023-04-11T07:53:57.498Z,16.50
2023-04-11T07:56:24.585Z,16.70
2023-04-11T07:58:51.485Z,16.80
2023-04-11T08:01:23.276Z,16.90
2023-04-11T08:03:51.543Z,17.00
2023-04-11T08:06:18.592Z,17.10
2023-04-11T08:08:46.695Z,17.10
2023-04-11T08:11:13.803Z,17.30
2023-04-11T08:13:41.344Z,17.40
2023-04-11T08:16:10.642Z,17.50
2023-04-11T08:18:37.965Z,17.70
2023-04-11T08:21:05.329Z,17.90
2023-04-11T08:23:32.271Z,18.10
2023-04-11T08:25:59.128Z,18.10
2023-04-11T08:28:26.224Z,18.10
2023-04-11T08:30:55.440Z,18.00
2023-04-11T08:33:28.018Z,17.90
2023-04-11T08:35:55.042Z,17.90
2023-04-11T08:38:21.964Z,17.90
2023-04-11T08:40:49.071Z,17.80
2023-04-11T08:43:16.504Z,17.70
2023-04-11T08:45:43.663Z,17.70
2023-04-11T08:48:12.443Z,17.60
2023-04-11T08:50:43.742Z,17.70
2023-04-11T08:53:11.679Z,17.70
2023-04-11T08:55:47.077Z,17.90
2023-04-11T08:58:14.658Z,18.10
2023-04-11T09:00:41.566Z,18.20
2023-04-11T09:03:10.855Z,18.40
2023-04-11T09:05:41.701Z,18.70
2023-04-11T09:08:10.664Z,18.90
2023-04-11T09:10:39.434Z,19.10
2023-04-11T09:13:18.590Z,19.30
2023-04-11T09:15:45.566Z,19.60
2023-04-11T09:18:31.095Z,19.70
2023-04-11T09:21:05.539Z,19.80
2023-04-11T09:23:32.881Z,19.80
2023-04-11T09:25:59.798Z,19.90
2023-04-11T09:28:26.855Z,19.90
2023-04-11T09:30:55.513Z,19.90
2023-04-11T09:33:29.938Z,19.90
2023-04-11T09:35:57.291Z,19.90
2023-04-11T09:38:34.979Z,19.80
2023-04-11T09:41:03.810Z,19.80
2023-04-11T09:43:53.642Z,19.70
2023-04-11T09:46:21.645Z,19.70
2023-04-11T09:48:49.692Z,19.70
2023-04-11T09:51:34.407Z,19.70
2023-04-11T09:54:04.506Z,19.70
2023-04-11T09:56:34.097Z,19.80
2023-04-11T09:59:03.763Z,19.90
2023-04-11T10:01:30.875Z,20.10
2023-04-11T10:03:58.500Z,20.20
2023-04-11T10:06:40.524Z,20.30
2023-04-11T10:09:14.108Z,20.40
2023-04-11T10:11:45.105Z,20.50
2023-04-11T10:14:38.618Z,20.70
2023-04-11T10:17:22.787Z,20.80
2023-04-11T10:19:56.435Z,20.90
2023-04-11T10:22:43.108Z,20.90
2023-04-11T10:25:21.770Z,21.00
2023-04-11T10:27:50.543Z,21.00
2023-04-11T10:30:17.647Z,21.10
2023-04-11T10:33:17.627Z,21.20
2023-04-11T10:36:03.467Z,21.40
2023-04-11T10:38:49.268Z,21.60
2023-04-11T10:41:27.558Z,21.60
2023-04-11T10:44:14.947Z,21.60
2023-04-11T10:46:55.843Z,21.60
2023-04-11T10:49:40.535Z,21.70
2023-04-11T10:52:24.336Z,21.90
2023-04-11T10:54:52.794Z,22.00
2023-04-11T10:57:21.166Z,22.00
2023-04-11T10:59:51.138Z,22.10
2023-04-11T11:02:22.057Z,22.20
2023-04-11T11:04:49.710Z,22.10
2023-04-11T11:07:17.470Z,22.10
2023-04-11T11:09:51.395Z,22.00
2023-04-11T11:12:18.623Z,21.90
2023-04-11T11:14:47.305Z,22.00
2023-04-11T11:17:16.273Z,22.00
2023-04-11T11:19:47.435Z,22.00
2023-04-11T11:22:19.232Z,22.00
2023-04-11T11:24:46.193Z,22.10
2023-04-11T11:27:24.071Z,22.20
2023-04-11T11:29:51.755Z,22.40
2023-04-11T11:32:28.962Z,22.60
2023-04-11T11:34:58.726Z,22.70
2023-04-11T11:37:25.834Z,22.90
2023-04-11T11:39:53.185Z,22.90
2023-04-11T11:42:20.502Z,22.90
2023-04-11T11:44:47.678Z,22.90
2023-04-11T11:47:17.912Z,22.90
2023-04-11T11:49:54.212Z,22.90
2023-04-11T11:52:51.351Z,22.90
2023-04-11T11:55:18.161Z,22.90
2023-04-11T11:57:46.115Z,22.90
2023-04-11T12:00:15.001Z,22.90
2023-04-11T12:02:44.238Z,22.90
2023-04-11T12:05:12.432Z,23.00
2023-04-11T12:07:40.603Z,23.10
2023-04-11T12:10:09.497Z,23.00
2023-04-11T12:12:38.576Z,23.10
2023-04-11T12:15:14.170Z,23.00
2023-04-11T12:17:41.452Z,22.90
2023-04-11T12:20:10.700Z,22.80
2023-04-11T12:22:38.416Z,22.80
2023-04-11T12:25:10.654Z,22.90
2023-04-11T12:27:39.029Z,23.10
2023-04-11T12:30:06.683Z,23.20
2023-04-11T12:32:34.158Z,23.30
2023-04-11T12:35:05.910Z,23.40
2023-04-11T12:37:34.066Z,23.50
2023-04-11T12:40:01.479Z,23.50
2023-04-11T12:42:28.499Z,23.60
2023-04-11T12:44:55.566Z,23.60
2023-04-11T12:47:22.630Z,23.60
2023-04-11T12:49:49.638Z,23.50
2023-04-11T12:52:17.598Z,23.50
2023-04-11T12:54:44.516Z,23.50
2023-04-11T12:57:12.469Z,23.50
2023-04-11T12:59:39.507Z,23.60
2023-04-11T13:02:07.872Z,23.60
2023-04-11T13:04:35.086Z,23.60
2023-04-11T13:07:02.270Z,23.60
2023-04-11T13:09:34.347Z,23.40
2023-04-11T13:12:01.968Z,23.20
2023-04-11T13:14:29.443Z,23.20
2023-04-11T13:16:56.588Z,23.10
2023-04-11T13:19:23.817Z,23.00
2023-04-11T13:21:50.943Z,23.00
2023-04-11T13:24:17.850Z,22.90
2023-04-11T13:26:47.667Z,22.80
2023-04-11T13:29:14.669Z,22.70
2023-04-11T13:31:41.882Z,22.70
2023-04-11T13:34:08.787Z,22.70
2023-04-11T13:36:35.906Z,22.60
2023-04-11T13:39:02.900Z,22.60
2023-04-11T13:41:31.915Z,22.60
2023-04-11T13:43:58.841Z,22.60
2023-04-11T13:46:26.276Z,22.70
2023-04-11T13:48:53.245Z,22.70
2023-04-11T13:51:20.438Z,22.70
2023-04-11T13:53:47.312Z,22.70
2023-04-11T13:56:14.211Z,22.70
2023-04-11T13:58:41.645Z,22.60
2023-04-11T14:01:08.657Z,22.60
2023-04-11T14:03:35.663Z,22.70
2023-04-11T14:06:03.478Z,22.70
2023-04-11T14:08:30.932Z,22.80
2023-04-11T14:10:57.968Z,22.80
2023-04-11T14:13:24.928Z,22.80
2023-04-11T14:16:04.834Z,22.80
2023-04-11T14:18:35.851Z,22.90
2023-04-11T14:21:03.612Z,23.00
2023-04-11T14:23:31.574Z,23.20
2023-04-11T14:25:58.523Z,23.30
2023-04-11T14:28:26.828Z,23.40
2023-04-11T14:30:55.170Z,23.40
2023-04-11T14:33:22.286Z,23.50
2023-04-11T14:35:50.903Z,23.40
2023-04-11T14:38:17.980Z,23.50
2023-04-11T14:40:45.065Z,23.40
2023-04-11T14:43:12.196Z,23.30
2023-04-11T14:45:39.101Z,23.30
2023-04-11T14:48:06.769Z,23.30
2023-04-11T14:50:33.835Z,23.30
2023-04-11T14:53:01.133Z,23.30
2023-04-11T14:55:28.114Z,23.30
2023-04-11T14:57:56.529Z,23.30
2023-04-11T15:00:24.528Z,23.20
2023-04-11T15:02:54.346Z,23.10
2023-04-11T15:05:22.823Z,23.00
2023-04-11T15:07:51.697Z,23.00
2023-04-11T15:10:24.611Z,23.00
2023-04-11T15:12:51.674Z,23.00
2023-04-11T15:15:18.651Z,23.00
2023-04-11T15:18:09.654Z,23.00
2023-04-11T15:20:36.803Z,22.90
2023-04-11T15:23:03.787Z,22.80
2023-04-11T15:25:30.681Z,22.70
2023-04-11T15:27:57.495Z,22.60
2023-04-11T15:30:24.713Z,22.60
2023-04-11T15:32:51.577Z,22.50
2023-04-11T15:35:18.593Z,22.40
2023-04-11T15:37:45.737Z,22.40
2023-04-11T15:40:15.273Z,22.30
2023-04-11T15:42:43.089Z,22.20
2023-04-11T15:45:10.574Z,22.20
2023-04-11T15:47:37.712Z,22.10
2023-04-11T15:50:05.024Z,22.10
2023-04-11T15:52:32.056Z,22.00
2023-04-11T15:54:59.195Z,22.00
2023-04-11T15:57:28.217Z,22.00
2023-04-11T15:59:55.848Z,22.00
2023-04-11T16:02:23.327Z,22.00
2023-04-11T16:04:52.866Z,22.00
2023-04-11T16:07:23.151Z,21.90
2023-04-11T16:09:50.323Z,21.90
2023-04-11T16:12:18.161Z,21.90
2023-04-11T16:14:48.007Z,21.80
2023-04-11T16:17:20.321Z,21.80
2023-04-11T16:19:50.691Z,21.80
2023-04-11T16:22:17.589Z,21.70
2023-04-11T16:24:44.671Z,21.70
2023-04-11T16:27:11.668Z,21.60
2023-04-11T16:29:38.606Z,21.60
2023-04-11T16:32:06.340Z,21.50
2023-04-11T16:34:33.339Z,21.40
2023-04-11T16:37:01.259Z,21.40
2023-04-11T16:39:28.187Z,21.30
2023-04-11T16:41:56.310Z,21.20
2023-04-11T16:44:23.243Z,21.20
2023-04-11T16:46:50.291Z,21.10
2023-04-11T16:49:17.997Z,21.10
2023-04-11T16:51:44.968Z,21.00
2023-04-11T16:54:13.427Z,20.90
2023-04-11T16:56:40.768Z,20.90
2023-04-11T16:59:07.733Z,20.80
2023-04-11T17:01:34.821Z,20.70
2023-04-11T17:04:02.058Z,20.60
2023-04-11T17:06:29.276Z,20.60
2023-04-11T17:08:57.703Z,20.50
2023-04-11T17:11:25.168Z,20.40
2023-04-11T17:13:54.394Z,20.30
2023-04-11T17:16:22.013Z,20.30
2023-04-11T17:18:49.013Z,20.20
2023-04-11T17:21:17.136Z,20.20
2023-04-11T17:23:44.583Z,20.10
2023-04-11T17:26:12.360Z,20.10
2023-04-11T17:28:40.756Z,20.10
2023-04-11T17:31:12.993Z,20.00
2023-04-11T17:33:40.607Z,20.00
2023-04-11T17:36:08.739Z,19.90
2023-04-11T17:38:37.930Z,19.90
2023-04-11T17:41:14.317Z,19.80
2023-04-11T17:43:43.713Z,19.70
2023-04-11T17:46:10.724Z,19.70
2023-04-11T17:48:37.844Z,19.60
2023-04-11T17:51:05.832Z,19.50
2023-04-11T17:53:33.440Z,19.40
2023-04-11T17:56:07.202Z,19.30
2023-04-11T17:58:34.640Z,19.20
2023-04-11T18:01:03.870Z,19.10
2023-04-11T18:03:34.773Z,19.00
2023-04-11T18:06:02.326Z,18.90
2023-04-11T18:08:43.313Z,18.80
2023-04-11T18:11:16.401Z,18.70
2023-04-11T18:13:43.888Z,18.70
2023-04-11T18:16:11.385Z,18.60
2023-04-11T18:18:38.487Z,18.50
2023-04-11T18:21:07.756Z,18.50
2023-04-11T18:23:35.299Z,18.40
2023-04-11T18:26:02.322Z,18.40
2023-04-11T18:28:29.580Z,18.30
2023-04-11T18:30:56.718Z,18.20
2023-04-11T18:33:23.946Z,18.10
2023-04-11T18:35:51.057Z,17.90
2023-04-11T18:38:18.220Z,17.80
2023-04-11T18:40:46.053Z,17.70
2023-04-11T18:43:13.430Z,17.60
2023-04-11T18:45:41.767Z,17.50
2023-04-11T18:48:09.527Z,17.40
2023-04-11T18:50:42.820Z,17.30
2023-04-11T18:53:13.810Z,17.30
2023-04-11T18:55:41.538Z,17.30
2023-04-11T18:58:10.127Z,17.20
2023-04-11T19:00:39.153Z,17.20
2023-04-11T19:03:06.913Z,17.10
2023-04-11T19:05:34.754Z,17.10
2023-04-11T19:08:01.953Z,17.00
2023-04-11T19:10:29.119Z,17.00
2023-04-11T19:12:56.326Z,16.90
2023-04-11T19:15:23.678Z,16.80
2023-04-11T19:17:51.568Z,16.70
2023-04-11T19:20:19.222Z,16.70
2023-04-11T19:22:46.566Z,16.60
2023-04-11T19:25:14.735Z,16.50
2023-04-11T19:27:42.495Z,16.40
2023-04-11T19:30:11.397Z,16.30
2023-04-11T19:32:43.224Z,16.20
2023-04-11T19:35:11.535Z,16.10
2023-04-11T19:37:38.727Z,16.10
2023-04-11T19:40:15.938Z,16.00
2023-04-11T19:42:44.161Z,16.00
2023-04-11T19:45:11.889Z,15.90
2023-04-11T19:47:40.953Z,15.90
2023-04-11T19:50:15.222Z,15.80
2023-04-11T19:52:43.471Z,15.70
2023-04-11T19:55:13.488Z,15.70
2023-04-11T19:57:43.464Z,15.70
2023-04-11T20:00:12.871Z,15.70
2023-04-11T20:02:44.767Z,15.60
2023-04-11T20:05:16.385Z,15.60
2023-04-11T20:07:44.106Z,15.60
2023-04-11T20:10:12.456Z,15.60
2023-04-11T20:12:39.540Z,15.60
2023-04-11T20:15:07.205Z,15.50
2023-04-11T20:17:34.244Z,15.50
2023-04-11T20:20:05.734Z,15.50
2023-04-11T20:22:33.218Z,15.50
2023-04-11T20:25:00.188Z,15.50
2023-04-11T20:27:28.238Z,15.50
2023-04-11T20:29:56.667Z,15.50
2023-04-11T20:32:23.853Z,15.40
2023-04-11T20:34:50.893Z,15.30
2023-04-11T20:37:19.378Z,15.20
2023-04-11T20:39:46.353Z,15.10
2023-04-11T20:42:13.791Z,15.10
2023-04-11T20:44:42.635Z,15.00
2023-04-11T20:47:09.696Z,14.90
2023-04-11T20:49:36.653Z,14.80
2023-04-11T20:52:03.758Z,14.70
2023-04-11T20:54:30.826Z,14.60
2023-04-11T20:56:57.723Z,14.60
2023-04-11T20:59:24.623Z,14.50
2023-04-11T21:01:53.623Z,14.40
2023-04-11T21:04:22.027Z,14.30
2023-04-11T21:06:50.079Z,14.30
2023-04-11T21:09:17.456Z,14.20
2023-04-11T21:11:44.364Z,14.20
2023-04-11T21:14:11.291Z,14.20
2023-04-11T21:16:38.289Z,14.20
2023-04-11T21:19:05.119Z,14.20
2023-04-11T21:21:33.491Z,14.10
2023-04-11T21:24:01.493Z,14.10
2023-04-11T21:26:28.505Z,14.10
2023-04-11T21:28:55.989Z,14.00
2023-04-11T21:31:22.975Z,14.00
2023-04-11T21:33:49.845Z,14.00
2023-04-11T21:36:16.884Z,13.90
2023-04-11T21:38:43.877Z,13.90
2023-04-11T21:41:10.905Z,13.90
2023-04-11T21:43:37.842Z,13.80
2023-04-11T21:46:05.052Z,13.80
2023-04-11T21:48:31.909Z,13.60
2023-04-11T21:50:59.007Z,13.60
2023-04-11T21:53:26.457Z,13.50
2023-04-11T21:55:53.421Z,13.40
2023-04-11T21:58:29.041Z,13.30
2023-04-11T22:00:56.928Z,13.20
2023-04-11T22:03:24.341Z,13.10
2023-04-11T22:05:52.350Z,12.90
2023-04-11T22:08:20.353Z,12.80
2023-04-11T22:10:48.360Z,12.80
2023-04-11T22:13:17.933Z,12.80
2023-04-11T22:15:46.032Z,12.80
2023-04-11T22:18:13.046Z,12.80
2023-04-11T22:20:44.254Z,12.80
2023-04-11T22:23:13.492Z,12.80
2023-04-11T22:25:44.378Z,12.80
2023-04-11T22:28:20.965Z,12.80
2023-04-11T22:30:47.892Z,12.80
2023-04-11T22:33:15.418Z,12.80
2023-04-11T22:35:44.809Z,12.80
2023-04-11T22:38:11.942Z,12.70
2023-04-11T22:40:41.602Z,12.60
2023-04-11T22:43:08.981Z,12.60
2023-04-11T22:45:36.048Z,12.50
2023-04-11T22:48:04.211Z,12.50
2023-04-11T22:50:38.156Z,12.50
2023-04-11T22:53:05.545Z,12.50
2023-04-11T22:55:35.598Z,12.50
2023-04-11T22:58:03.348Z,12.50
2023-04-11T23:00:30.356Z,12.50
2023-04-11T23:02:59.805Z,12.40
2023-04-11T23:05:27.119Z,12.40
2023-04-11T23:07:54.188Z,12.30
2023-04-11T23:10:21.073Z,12.30
2023-04-11T23:12:49.714Z,12.20
2023-04-11T23:15:17.398Z,12.20
2023-04-11T23:17:45.073Z,12.10
2023-04-11T23:20:13.818Z,12.00
2023-04-11T23:22:42.483Z,12.00
2023-04-11T23:25:14.989Z,12.00
2023-04-11T23:27:43.467Z,12.00
2023-04-11T23:30:14.888Z,12.00
2023-04-11T23:32:43.058Z,11.90
2023-04-11T23:35:10.627Z,11.90
2023-04-11T23:37:37.718Z,11.90
2023-04-11T23:40:10.982Z,11.90
2023-04-11T23:42:41.833Z,11.90
2023-04-11T23:45:10.732Z,11.90
2023-04-11T23:47:37.884Z,11.90
2023-04-11T23:50:05.179Z,11.90
2023-04-11T23:52:32.325Z,11.90
2023-04-11T23:54:59.732Z,11.90
2023-04-11T23:57:27.085Z,11.90
2023-04-11T23:59:53.925Z,11.90
